Terminal Aerodrome Forecast
Issued by NWS

Home | Current Version | Previous Version | Graphics & Text | Print | Product List | Glossary On
Versions: 1 2 3 4 5 6 7 8 9 10 11 12 13 14 15
000
FTUS43 KICT 201739
TAFCNU
TAF
KCNU 201739Z 2018/2118 27015G21KT P6SM BKN020
     FM202000 27015G21KT P6SM SCT030
     FM210200 28008KT P6SM SKC=

USA.gov is the U.S. government's official web portal to all federal, state and local government web resources and services.